Terminal Aerodrome Forecast
Issued by NWS Twin Cities, MN

Home | Current Version | Previous Version | Graphics & Text | Print | Product List | Glossary On
Versions: 1 2 3 4 5 6 7 8 9 10 11 12 13 14 15 16 17 18 19
000
FTUS43 KMPX 010520
TAFEAU
TAF
KEAU 010520Z 0106/0206 VRB02KT P6SM BKN120
     FM011000 11009KT P6SM OVC120
     FM011500 16018G27KT P6SM SCT100 BKN250
     FM012300 19014G21KT P6SM SCT060 OVC120
     FM020100 20013KT P6SM VCTS BKN050CB OVC090
      TEMPO 0202/0205 3SM SHRA OVC035=

USA.gov is the U.S. government's official web portal to all federal, state and local government web resources and services.